Time;durP1;ratioP1;P1;durP2;ratioP2;P2;SDS_P1;SDS_P2;PMS_P1;PMS_P2;Temp;Humidity;BMP_temperature;BMP_pressure;BME280_temperature;BME280_humidity;BME280_pressure;Samples;Min_cycle;Max_cycle;Signal;HPM_P1;HPM_P2
2023/07/07 00:00:53;;;;;;;4.93;4.37;;;;;;;12.62;100.00;97260.44;4996948;28;20588;-65
2023/07/07 00:03:21;;;;;;;4.77;4.37;;;;;;;12.53;100.00;97253.63;4996583;28;20221;-64
2023/07/07 00:05:49;;;;;;;5.10;4.60;;;;;;;12.49;100.00;97260.38;4993348;28;20214;-65
2023/07/07 00:08:16;;;;;;;4.80;4.40;;;;;;;12.44;100.00;97256.47;4991005;28;20209;-64
2023/07/07 00:10:44;;;;;;;4.97;4.57;;;;;;;12.44;100.00;97256.47;4992427;28;20647;-66
2023/07/07 00:13:13;;;;;;;5.17;4.77;;;;;;;12.41;100.00;97256.84;4993070;28;20823;-63
2023/07/07 00:15:44;;;;;;;4.90;4.47;;;;;;;12.38;100.00;97253.75;4999051;28;20236;-62
2023/07/07 00:18:14;;;;;;;5.40;4.90;;;;;;;12.40;100.00;97255.19;4997422;28;20753;-61
2023/07/07 00:20:42;;;;;;;6.23;4.93;;;;;;;12.48;100.00;97256.88;4994789;28;20279;-63
2023/07/07 00:23:12;;;;;;;5.27;4.87;;;;;;;12.52;100.00;97257.31;4990497;28;20883;-63
2023/07/07 00:25:39;;;;;;;5.50;4.97;;;;;;;12.50;100.00;97259.34;4992338;28;20217;-63
2023/07/07 00:28:07;;;;;;;5.10;4.77;;;;;;;12.46;100.00;97261.56;4992915;28;20893;-65
2023/07/07 00:30:35;;;;;;;4.57;4.27;;;;;;;12.39;100.00;97258.03;4998846;28;20236;-64
2023/07/07 00:33:03;;;;;;;5.13;4.73;;;;;;;12.41;100.00;97258.66;5000823;28;20243;-64
2023/07/07 00:35:32;;;;;;;5.10;4.60;;;;;;;12.39;100.00;97272.16;4994933;28;20304;-62
2023/07/07 00:37:59;;;;;;;5.83;5.13;;;;;;;12.41;100.00;97271.94;4990456;28;20581;-63
2023/07/07 00:40:27;;;;;;;5.33;4.90;;;;;;;12.38;100.00;97272.34;4992855;28;20263;-63
2023/07/07 00:42:55;;;;;;;5.97;5.47;;;;;;;12.38;100.00;97267.03;4994712;28;20248;-64
2023/07/07 00:45:22;;;;;;;5.83;5.33;;;;;;;12.30;100.00;97268.81;4996608;28;20205;-63
2023/07/07 00:47:54;;;;;;;5.53;5.03;;;;;;;12.26;100.00;97274.69;4996518;28;20204;-63
2023/07/07 00:50:25;;;;;;;5.43;4.93;;;;;;;12.22;100.00;97274.28;4996427;28;20201;-63
2023/07/07 00:52:54;;;;;;;5.33;4.93;;;;;;;12.19;100.00;97276.50;4987625;28;20319;-62
2023/07/07 00:55:27;;;;;;;6.20;5.30;;;;;;;12.13;100.00;97275.44;4991803;28;20264;-63
2023/07/07 00:57:55;;;;;;;6.67;4.90;;;;;;;12.00;100.00;97265.50;4991929;28;20322;-63
2023/07/07 01:00:23;;;;;;;5.83;5.33;;;;;;;12.00;100.00;97274.28;4998872;28;20208;-63
2023/07/07 01:02:54;;;;;;;5.10;4.70;;;;;;;11.87;100.00;97272.31;4998850;28;20283;-63
2023/07/07 01:05:24;;;;;;;5.07;4.77;;;;;;;11.83;100.00;97276.34;4990073;28;20209;-63
2023/07/07 01:07:53;;;;;;;5.00;4.70;;;;;;;11.77;100.00;97276.31;4994605;28;21006;-63
2023/07/07 01:10:22;;;;;;;5.13;4.83;;;;;;;11.70;100.00;97270.91;4996886;28;20244;-63
2023/07/07 01:12:50;;;;;;;4.90;4.57;;;;;;;11.65;100.00;97274.13;4993468;28;20265;-62
2023/07/07 01:15:19;;;;;;;4.93;4.53;;;;;;;11.63;100.00;97280.66;5001978;28;20201;-64
2023/07/07 01:17:56;;;;;;;5.40;5.00;;;;;;;11.57;100.00;97276.91;4999410;28;20256;-63
2023/07/07 01:20:31;;;;;;;5.67;5.10;;;;;;;11.52;100.00;97279.31;4996222;28;20216;-63
2023/07/07 01:23:46;;;;;;;5.30;4.90;;;;;;;11.48;100.00;97280.69;4990623;28;20761;-63
2023/07/07 01:26:26;;;;;;;5.90;5.50;;;;;;;11.46;100.00;97280.88;4993216;28;20213;-63
2023/07/07 01:29:15;;;;;;;5.77;5.30;;;;;;;11.42;100.00;97282.25;4997642;28;20204;-63
2023/07/07 01:31:47;;;;;;;5.80;5.30;;;;;;;11.38;100.00;97283.63;4993813;28;21374;-63
2023/07/07 01:34:16;;;;;;;5.30;4.90;;;;;;;11.32;100.00;97284.41;5001536;28;20213;-64
2023/07/07 01:36:44;;;;;;;5.67;5.27;;;;;;;11.25;100.00;97279.84;5001139;28;20304;-62
2023/07/07 01:39:13;;;;;;;6.50;5.90;;;;;;;11.27;100.00;97282.28;4992572;28;20293;-63
2023/07/07 01:41:46;;;;;;;6.33;5.43;;;;;;;11.27;100.00;97288.44;4994435;28;20236;-63
2023/07/07 01:44:17;;;;;;;5.73;5.30;;;;;;;11.28;100.00;97290.06;5000779;28;20323;-63
2023/07/07 01:46:50;;;;;;;5.77;5.37;;;;;;;11.27;100.00;97287.59;5001977;28;20216;-62
2023/07/07 01:49:20;;;;;;;5.80;5.40;;;;;;;11.27;100.00;97288.44;4991326;28;20674;-65
2023/07/07 01:51:51;;;;;;;6.10;5.60;;;;;;;11.26;100.00;97291.25;4992275;28;20319;-63
2023/07/07 01:54:19;;;;;;;5.93;5.40;;;;;;;11.27;100.00;97290.25;5001820;28;20728;-63
2023/07/07 01:56:47;;;;;;;5.33;4.93;;;;;;;11.26;100.00;97286.78;4991718;28;20271;-63
2023/07/07 01:59:15;;;;;;;5.40;4.90;;;;;;;11.23;100.00;97286.31;4995149;28;20240;-62
2023/07/07 02:01:43;;;;;;;6.03;5.53;;;;;;;11.24;100.00;97293.25;5000878;28;20245;-62
2023/07/07 02:04:12;;;;;;;6.07;5.57;;;;;;;11.17;100.00;97290.53;5002018;28;20204;-63
2023/07/07 02:06:40;;;;;;;6.50;5.90;;;;;;;11.09;100.00;97293.28;4993702;28;20212;-63
2023/07/07 02:09:08;;;;;;;7.23;5.87;;;;;;;11.07;100.00;97296.13;4997769;28;20235;-62
2023/07/07 02:11:35;;;;;;;7.30;6.33;;;;;;;10.98;100.00;97292.75;4988905;28;20792;-62
2023/07/07 02:14:03;;;;;;;5.57;5.20;;;;;;;10.98;100.00;97303.34;4992468;28;20305;-61
2023/07/07 02:16:31;;;;;;;6.03;5.47;;;;;;;10.93;100.00;97297.78;4993440;28;20213;-63
2023/07/07 02:18:58;;;;;;;5.87;5.47;;;;;;;10.90;100.00;97308.75;4998762;28;21102;-64
2023/07/07 02:21:27;;;;;;;5.50;5.10;;;;;;;10.84;100.00;97310.31;4998890;28;20229;-63
2023/07/07 02:23:55;;;;;;;6.10;5.50;;;;;;;10.85;100.00;97313.78;4997944;28;20300;-64
2023/07/07 02:26:22;;;;;;;6.40;6.00;;;;;;;10.85;100.00;97311.94;4990622;28;20326;-63
2023/07/07 02:28:50;;;;;;;7.80;5.40;;;;;;;10.86;100.00;97313.59;4992868;28;20479;-64
2023/07/07 02:31:18;;;;;;;6.57;5.97;;;;;;;10.82;100.00;97316.81;4999004;28;20328;-63
2023/07/07 02:33:46;;;;;;;6.23;5.73;;;;;;;10.78;100.00;97308.38;4999414;28;20213;-63
2023/07/07 02:36:13;;;;;;;5.83;5.40;;;;;;;10.77;100.00;97306.75;4992866;28;20216;-64
2023/07/07 02:38:42;;;;;;;5.67;5.17;;;;;;;10.77;100.00;97308.56;4991456;28;20316;-64
2023/07/07 02:41:10;;;;;;;5.50;5.10;;;;;;;10.75;100.00;97313.22;4993334;28;21772;-64
2023/07/07 02:43:38;;;;;;;6.37;5.63;;;;;;;10.73;100.00;97310.75;4995735;28;20228;-64
2023/07/07 02:46:05;;;;;;;6.73;6.17;;;;;;;10.71;100.00;97313.56;4998076;28;20751;-64
2023/07/07 02:48:33;;;;;;;6.57;6.07;;;;;;;10.69;100.00;97309.47;4998258;28;20748;-64
2023/07/07 02:51:05;;;;;;;6.17;5.67;;;;;;;10.67;100.00;97319.44;4988564;28;20755;-64
2023/07/07 02:53:34;;;;;;;5.87;5.47;;;;;;;10.68;100.00;97316.59;4996297;28;20236;-64
2023/07/07 02:56:05;;;;;;;6.17;5.67;;;;;;;10.71;100.00;97315.41;4988165;28;20225;-64
2023/07/07 02:58:32;;;;;;;6.07;5.57;;;;;;;10.65;100.00;97318.81;4997004;28;20302;-65
2023/07/07 03:01:10;;;;;;;6.03;5.63;;;;;;;10.65;100.00;97319.59;4998510;28;20292;-64
2023/07/07 03:03:39;;;;;;;6.87;6.17;;;;;;;10.62;100.00;97321.81;4999467;28;20216;-63
2023/07/07 03:06:09;;;;;;;6.27;5.67;;;;;;;10.63;100.00;97323.47;4988989;28;20201;-64
2023/07/07 03:08:37;;;;;;;6.50;5.90;;;;;;;10.57;100.00;97325.81;4994645;28;20261;-62
2023/07/07 03:11:07;;;;;;;6.30;5.90;;;;;;;10.55;100.00;97327.81;4990188;28;20268;-64
2023/07/07 03:13:35;;;;;;;6.20;5.80;;;;;;;10.52;100.00;97335.31;4993641;28;20208;-63
2023/07/07 03:16:09;;;;;;;6.80;6.30;;;;;;;10.49;100.00;97333.03;4997373;28;20209;-63
2023/07/07 03:18:37;;;;;;;6.30;5.80;;;;;;;10.44;100.00;97335.41;4998089;28;20307;-62
2023/07/07 03:21:04;;;;;;;6.20;5.70;;;;;;;10.43;100.00;97334.56;4992497;28;20298;-62
2023/07/07 03:23:32;;;;;;;6.27;5.77;;;;;;;10.36;100.00;97334.41;4991242;28;20672;-63
2023/07/07 03:26:08;;;;;;;6.13;5.70;;;;;;;10.34;100.00;97336.41;4992884;28;20296;-64
2023/07/07 03:28:36;;;;;;;6.77;6.17;;;;;;;10.31;100.00;97328.81;4997588;28;20201;-63
2023/07/07 03:31:11;;;;;;;6.37;5.83;;;;;;;10.29;100.00;97338.78;4996597;28;20251;-63
2023/07/07 03:33:40;;;;;;;6.37;5.87;;;;;;;10.21;100.00;97337.00;4998454;28;20213;-63
2023/07/07 03:36:10;;;;;;;6.47;5.97;;;;;;;10.27;100.00;97348.72;4989066;28;20291;-64
2023/07/07 03:38:37;;;;;;;6.20;5.70;;;;;;;10.30;100.00;97350.22;4988246;28;20712;-64
2023/07/07 03:41:08;;;;;;;7.33;6.57;;;;;;;10.26;100.00;97349.72;4991717;28;20218;-60
2023/07/07 03:43:37;;;;;;;6.60;6.10;;;;;;;10.21;100.00;97346.78;4996488;28;20841;-60
2023/07/07 03:46:05;;;;;;;6.53;5.70;;;;;;;10.19;100.00;97349.59;4995077;28;20208;-64
2023/07/07 03:48:33;;;;;;;6.57;6.17;;;;;;;10.31;100.00;97355.31;4998169;28;20228;-64
2023/07/07 03:51:03;;;;;;;7.40;6.70;;;;;;;10.25;100.00;97359.50;4992001;28;20201;-63
2023/07/07 03:53:31;;;;;;;6.77;6.07;;;;;;;10.24;100.00;97363.16;4986346;28;21061;-63
2023/07/07 03:55:59;;;;;;;6.57;6.07;;;;;;;10.25;100.00;97359.50;4984190;28;20264;-61
2023/07/07 03:58:29;;;;;;;6.97;6.47;;;;;;;10.29;100.00;97362.59;4986265;28;20232;-63
2023/07/07 04:01:01;;;;;;;6.97;6.27;;;;;;;10.34;100.00;97360.25;4990521;28;20635;-61
2023/07/07 04:03:30;;;;;;;7.33;6.67;;;;;;;10.40;100.00;97358.75;4992411;28;20279;-64
2023/07/07 04:05:58;;;;;;;6.63;6.07;;;;;;;10.47;100.00;97359.69;4988957;28;20743;-64
2023/07/07 04:08:26;;;;;;;7.50;6.80;;;;;;;10.49;100.00;97367.47;4985483;28;20279;-65
2023/07/07 04:11:02;;;;;;;6.93;6.33;;;;;;;10.58;100.00;97363.72;4991981;28;20240;-63
2023/07/07 04:13:32;;;;;;;6.77;6.27;;;;;;;10.62;100.00;97367.66;4989147;28;20242;-63
2023/07/07 04:16:01;;;;;;;6.47;5.87;;;;;;;10.75;100.00;97360.91;4993999;28;20201;-64
2023/07/07 04:18:31;;;;;;;7.03;6.37;;;;;;;10.85;100.00;97356.19;4994198;28;20201;-64
2023/07/07 04:21:00;;;;;;;7.87;7.17;;;;;;;10.98;100.00;97366.16;4991071;28;20228;-64
2023/07/07 04:23:28;;;;;;;6.83;6.23;;;;;;;11.03;100.00;97357.66;4992106;28;20259;-64
2023/07/07 04:25:56;;;;;;;6.87;6.27;;;;;;;11.11;100.00;97373.47;4993284;28;20209;-63
2023/07/07 04:28:23;;;;;;;8.17;6.90;;;;;;;11.25;100.00;97363.88;4992910;28;20209;-63
2023/07/07 04:30:53;;;;;;;6.60;6.13;;;;;;;11.36;100.00;97366.06;4996151;28;20228;-63
2023/07/07 04:33:22;;;;;;;7.53;6.83;;;;;;;11.54;100.00;97372.81;4994040;28;20248;-63
2023/07/07 04:35:53;;;;;;;7.13;6.63;;;;;;;11.64;100.00;97362.72;4997555;28;20208;-63
2023/07/07 04:38:23;;;;;;;7.00;6.30;;;;;;;11.82;100.00;97364.97;4992957;28;20292;-64
2023/07/07 04:40:50;;;;;;;7.93;7.20;;;;;;;11.88;100.00;97364.22;4998507;28;20718;-64
2023/07/07 04:43:18;;;;;;;7.53;6.83;;;;;;;11.98;100.00;97360.44;4989689;28;20265;-63
2023/07/07 04:45:46;;;;;;;7.87;7.07;;;;;;;12.12;100.00;97364.91;5002240;28;20296;-62
2023/07/07 04:48:15;;;;;;;8.33;7.53;;;;;;;12.23;100.00;97370.72;4997496;28;20208;-63
2023/07/07 04:50:42;;;;;;;8.63;7.80;;;;;;;12.39;100.00;97378.44;4999559;28;20292;-64
2023/07/07 04:53:10;;;;;;;7.10;6.50;;;;;;;12.40;100.00;97373.94;4991978;28;20300;-63
2023/07/07 04:55:42;;;;;;;7.40;6.70;;;;;;;12.69;100.00;97383.59;5000196;28;20201;-62
2023/07/07 04:58:10;;;;;;;7.40;6.70;;;;;;;12.84;100.00;97382.69;4994250;28;20210;-64
2023/07/07 05:00:37;;;;;;;6.90;6.27;;;;;;;12.79;100.00;97374.47;5000108;28;20715;-63
2023/07/07 05:03:05;;;;;;;7.57;6.93;;;;;;;13.00;100.00;97390.34;4998266;28;20286;-63
2023/07/07 05:05:37;;;;;;;7.13;6.23;;;;;;;13.23;100.00;97388.44;4997920;28;20295;-64
2023/07/07 05:08:06;;;;;;;10.10;7.13;;;;;;;13.44;100.00;97387.56;4993666;28;20201;-62
2023/07/07 05:10:36;;;;;;;7.63;6.90;;;;;;;13.58;100.00;97393.78;4997348;28;20228;-62
2023/07/07 05:13:03;;;;;;;7.33;6.67;;;;;;;13.75;100.00;97391.59;4997324;28;20240;-64
2023/07/07 05:15:31;;;;;;;8.40;7.60;;;;;;;13.93;100.00;97392.88;5003365;28;20209;-62
2023/07/07 05:17:59;;;;;;;8.10;7.50;;;;;;;14.11;100.00;97397.66;5001051;28;20300;-63
2023/07/07 05:20:27;;;;;;;7.90;7.20;;;;;;;14.30;100.00;97390.72;4991849;28;20784;-63
2023/07/07 05:22:56;;;;;;;7.80;7.20;;;;;;;14.37;100.00;97393.38;4999225;28;20254;-63
2023/07/07 05:25:23;;;;;;;9.60;8.63;;;;;;;14.48;100.00;97401.59;4993051;28;20248;-63
2023/07/07 05:27:51;;;;;;;8.23;7.60;;;;;;;14.57;100.00;97402.22;4993314;28;20304;-62
2023/07/07 05:30:19;;;;;;;9.07;8.27;;;;;;;14.71;100.00;97402.25;4999220;28;20658;-62
2023/07/07 05:32:47;;;;;;;8.53;7.20;;;;;;;14.79;100.00;97404.75;4993005;28;20248;-62
2023/07/07 05:35:14;;;;;;;8.20;7.43;;;;;;;14.92;100.00;97382.53;5000880;28;20208;-64
2023/07/07 05:37:42;;;;;;;9.83;8.23;;;;;;;15.03;100.00;97402.44;5000028;28;20217;-61
2023/07/07 05:40:12;;;;;;;9.20;8.37;;;;;;;15.18;100.00;97407.56;4994686;28;20233;-62
2023/07/07 05:42:41;;;;;;;9.10;7.10;;;;;;;15.32;100.00;97411.03;4995950;28;20574;-63
2023/07/07 05:45:10;;;;;;;8.60;7.77;;;;;;;15.42;100.00;97398.06;4997675;28;20292;-62
2023/07/07 05:47:37;;;;;;;8.67;7.87;;;;;;;15.38;100.00;97404.03;4998842;28;20209;-63
2023/07/07 05:50:06;;;;;;;7.20;6.70;;;;;;;15.63;100.00;97404.97;4999519;28;20201;-61
2023/07/07 05:52:33;;;;;;;9.97;6.97;;;;;;;15.78;100.00;97412.72;4995069;28;20305;-64
2023/07/07 05:55:03;;;;;;;7.13;6.43;;;;;;;15.90;100.00;97406.75;4990301;28;20776;-62
2023/07/07 05:57:32;;;;;;;6.97;6.47;;;;;;;15.99;100.00;97410.00;4993479;28;20315;-63
2023/07/07 05:59:59;;;;;;;9.03;8.13;;;;;;;16.10;100.00;97409.34;5001458;28;20249;-62
2023/07/07 06:02:27;;;;;;;7.40;6.80;;;;;;;16.20;100.00;97407.00;5000152;28;20617;-63
2023/07/07 06:04:55;;;;;;;7.33;6.73;;;;;;;16.42;100.00;97413.88;5001519;28;20201;-62
2023/07/07 06:07:22;;;;;;;6.90;6.40;;;;;;;16.60;100.00;97418.47;4992054;28;20209;-64
2023/07/07 06:09:57;;;;;;;6.90;6.30;;;;;;;16.69;100.00;97409.16;4994584;28;20704;-64
2023/07/07 06:12:25;;;;;;;7.40;6.30;;;;;;;16.93;100.00;97404.81;4994633;28;20330;-63
2023/07/07 06:14:54;;;;;;;5.83;5.33;;;;;;;16.97;100.00;97409.75;4999475;28;20259;-63
2023/07/07 06:17:21;;;;;;;7.17;6.60;;;;;;;16.93;100.00;97407.50;4998298;28;20227;-63
2023/07/07 06:19:49;;;;;;;6.50;5.90;;;;;;;17.17;100.00;97415.78;4996219;28;20217;-62
2023/07/07 06:22:17;;;;;;;5.73;5.23;;;;;;;17.26;100.00;97404.75;4991984;28;20319;-63
2023/07/07 06:24:44;;;;;;;5.10;4.70;;;;;;;17.36;100.00;97421.13;4998043;28;20251;-63
2023/07/07 06:27:12;;;;;;;6.07;5.53;;;;;;;17.56;100.00;97418.25;4992295;28;20209;-64
2023/07/07 06:29:40;;;;;;;6.20;5.40;;;;;;;17.56;100.00;97420.13;4997558;28;20252;-63
2023/07/07 06:32:10;;;;;;;7.40;6.70;;;;;;;17.60;100.00;97421.31;4997509;28;20225;-62
2023/07/07 06:34:37;;;;;;;5.33;4.90;;;;;;;17.68;100.00;97417.50;4997446;28;20628;-64
2023/07/07 06:37:06;;;;;;;5.20;4.80;;;;;;;17.87;100.00;97424.47;4992969;28;20205;-64
2023/07/07 06:39:33;;;;;;;6.07;5.57;;;;;;;18.06;100.00;97419.94;4996126;28;20205;-63
2023/07/07 06:42:02;;;;;;;5.70;5.20;;;;;;;18.21;100.00;97426.78;4987413;28;21309;-63
2023/07/07 06:44:29;;;;;;;6.03;5.17;;;;;;;18.18;100.00;97406.59;4994675;28;20257;-61
2023/07/07 06:46:57;;;;;;;5.70;5.20;;;;;;;18.32;100.00;97422.47;4999634;28;20758;-62
2023/07/07 06:49:26;;;;;;;6.03;4.97;;;;;;;18.40;100.00;97427.53;4993893;28;21096;-64
2023/07/07 06:51:54;;;;;;;5.57;5.17;;;;;;;18.50;100.00;97424.28;4995490;28;20245;-63
2023/07/07 06:54:21;;;;;;;5.13;4.73;;;;;;;18.65;100.00;97427.38;4991433;28;20201;-63
2023/07/07 06:56:49;;;;;;;5.17;4.77;;;;;;;18.78;100.00;97431.72;4989100;28;20700;-64
2023/07/07 06:59:17;;;;;;;5.10;4.70;;;;;;;18.92;100.00;97429.63;4995644;28;20233;-64
2023/07/07 07:01:44;;;;;;;5.50;5.03;;;;;;;19.01;100.00;97429.31;4995986;28;20258;-63
2023/07/07 07:04:12;;;;;;;5.37;4.97;;;;;;;19.16;100.00;97424.28;4996550;28;20209;-65
2023/07/07 07:06:43;;;;;;;5.20;4.80;;;;;;;19.21;100.00;97421.72;4994763;28;20255;-64
2023/07/07 07:09:11;;;;;;;5.67;5.17;;;;;;;19.30;100.00;97434.78;4990904;28;20205;-63
2023/07/07 07:11:38;;;;;;;5.07;4.67;;;;;;;19.51;100.00;97426.16;4989521;28;20229;-64
2023/07/07 07:14:06;;;;;;;6.20;4.80;;;;;;;19.51;100.00;97434.19;4997242;28;20209;-64
2023/07/07 07:16:34;;;;;;;4.73;4.37;;;;;;;19.62;100.00;97431.72;4998605;28;20212;-63
2023/07/07 07:19:02;;;;;;;8.10;4.63;;;;;;;19.66;100.00;97427.50;4999264;28;20220;-63
2023/07/07 07:21:30;;;;;;;4.93;4.53;;;;;;;19.90;100.00;97428.34;4989137;28;20232;-65
2023/07/07 07:23:59;;;;;;;5.57;5.00;;;;;;;20.02;95.92;97433.66;4995471;28;20204;-63
2023/07/07 07:26:27;;;;;;;5.83;4.40;;;;;;;20.12;96.30;97433.03;4989019;28;20761;-64
2023/07/07 07:28:54;;;;;;;5.27;4.87;;;;;;;20.38;94.65;97420.06;4995365;28;20297;-63
2023/07/07 07:31:22;;;;;;;4.70;4.40;;;;;;;20.44;91.24;97429.84;4997224;28;20291;-63
2023/07/07 07:33:52;;;;;;;4.60;4.30;;;;;;;20.58;90.70;97426.84;4999165;28;20300;-63
2023/07/07 07:36:20;;;;;;;4.50;4.20;;;;;;;20.42;88.24;97426.59;4994427;28;20212;-64
2023/07/07 07:38:48;;;;;;;5.07;4.57;;;;;;;20.51;85.22;97435.09;4994283;28;20255;-63
2023/07/07 07:41:17;;;;;;;5.10;4.67;;;;;;;20.70;89.06;97424.09;4992834;28;20347;-64
2023/07/07 07:43:44;;;;;;;4.70;4.40;;;;;;;20.78;86.34;97432.59;4988378;28;20632;-64
2023/07/07 07:46:12;;;;;;;6.90;4.90;;;;;;;21.02;76.88;97431.66;4999228;28;20236;-64
2023/07/07 07:48:39;;;;;;;4.87;4.47;;;;;;;20.88;77.45;97428.47;4999440;28;20641;-64
2023/07/07 07:51:07;;;;;;;5.67;4.67;;;;;;;21.10;77.58;97423.97;4993900;28;20752;-64
2023/07/07 07:53:54;;;;;;;4.40;4.10;;;;;;;21.32;79.00;97427.78;4992903;28;20680;-62
2023/07/07 07:56:23;;;;;;;4.63;4.33;;;;;;;21.57;80.91;97430.00;4993917;28;20806;-62
2023/07/07 07:58:51;;;;;;;4.73;4.23;;;;;;;21.55;75.01;97434.84;4992761;28;20296;-64
2023/07/07 08:01:18;;;;;;;4.77;4.37;;;;;;;21.45;73.35;97430.13;4997757;28;20248;-65
2023/07/07 08:03:46;;;;;;;4.87;4.33;;;;;;;21.71;74.73;97435.06;4997505;28;20200;-64
2023/07/07 08:06:14;;;;;;;4.50;4.10;;;;;;;21.94;76.29;97432.13;4993642;28;20212;-63
2023/07/07 08:08:42;;;;;;;5.10;4.67;;;;;;;21.98;71.49;97433.25;4989879;28;20227;-65
2023/07/07 08:11:10;;;;;;;4.47;4.07;;;;;;;22.09;65.88;97425.25;4991848;28;20268;-64
2023/07/07 08:13:39;;;;;;;4.93;4.53;;;;;;;22.14;65.90;97427.22;4993447;28;20723;-64
2023/07/07 08:16:09;;;;;;;3.93;3.73;;;;;;;22.28;62.04;97431.13;4989848;28;20225;-64
2023/07/07 08:18:37;;;;;;;4.70;4.03;;;;;;;22.37;62.03;97431.50;4996511;28;20228;-65
2023/07/07 08:21:04;;;;;;;4.47;4.07;;;;;;;22.47;62.29;97431.63;4993705;28;20260;-64
2023/07/07 08:23:32;;;;;;;3.50;3.27;;;;;;;22.31;57.18;97433.31;4994676;28;20214;-64
2023/07/07 08:26:00;;;;;;;3.87;3.67;;;;;;;22.47;55.90;97434.31;4990464;28;20206;-64
2023/07/07 08:28:31;;;;;;;4.33;4.03;;;;;;;22.55;56.13;97435.75;4992164;28;20885;-64
2023/07/07 08:31:03;;;;;;;4.17;3.77;;;;;;;22.58;54.59;97429.84;4996219;28;20219;-64
2023/07/07 08:33:31;;;;;;;4.03;3.47;;;;;;;22.74;55.52;97436.19;4996365;28;20263;-64
2023/07/07 08:35:58;;;;;;;4.27;3.50;;;;;;;22.73;54.56;97431.88;4996905;28;20213;-64
2023/07/07 08:38:26;;;;;;;4.40;4.03;;;;;;;22.58;54.09;97442.53;4987437;28;20292;-64
2023/07/07 08:40:55;;;;;;;6.33;4.63;;;;;;;22.71;52.35;97444.81;4992143;28;20430;-64
2023/07/07 08:43:28;;;;;;;3.77;3.47;;;;;;;22.80;54.05;97437.84;4991507;28;20220;-65
2023/07/07 08:46:04;;;;;;;3.93;3.23;;;;;;;23.01;52.20;97443.44;4997390;28;20213;-64
2023/07/07 08:48:40;;;;;;;7.20;3.40;;;;;;;23.13;49.75;97441.34;4990111;28;20255;-63
2023/07/07 08:51:12;;;;;;;3.70;3.50;;;;;;;23.44;49.43;97442.66;4996659;28;20224;-64
2023/07/07 08:53:46;;;;;;;5.17;3.97;;;;;;;23.31;46.88;97439.38;4995387;28;20292;-64
2023/07/07 08:56:19;;;;;;;3.47;3.27;;;;;;;23.49;45.50;97442.69;4991309;28;20710;-64
2023/07/07 08:58:58;;;;;;;4.20;3.23;;;;;;;23.51;44.81;97437.84;4990396;28;20210;-64
2023/07/07 09:01:34;;;;;;;3.63;3.33;;;;;;;23.63;43.81;97435.72;4996723;28;20780;-64
2023/07/07 09:04:13;;;;;;;3.47;3.20;;;;;;;23.65;43.62;97430.06;4996899;28;20375;-64
2023/07/07 09:06:52;;;;;;;3.77;3.53;;;;;;;23.51;47.56;97435.13;4990813;28;20205;-64
2023/07/07 09:09:31;;;;;;;3.50;3.30;;;;;;;23.30;45.97;97432.31;4991500;28;20303;-64
2023/07/07 09:12:07;;;;;;;3.77;3.47;;;;;;;23.62;46.88;97434.09;4986321;28;20288;-63
2023/07/07 09:14:35;;;;;;;4.47;3.60;;;;;;;23.81;48.42;97433.66;4993824;28;20668;-65
2023/07/07 09:17:16;;;;;;;3.67;3.33;;;;;;;23.88;45.86;97436.13;4997792;28;20205;-64
2023/07/07 09:19:46;;;;;;;3.60;3.40;;;;;;;23.80;45.11;97434.75;4991901;28;20248;-64
2023/07/07 09:22:22;;;;;;;3.40;3.20;;;;;;;23.99;44.93;97432.38;4992572;28;20237;-64
2023/07/07 09:24:51;;;;;;;3.83;3.53;;;;;;;24.12;45.43;97433.81;5000076;28;20205;-64
2023/07/07 09:27:22;;;;;;;4.27;3.90;;;;;;;24.20;45.08;97446.81;4991659;28;20639;-65
2023/07/07 09:29:51;;;;;;;4.50;3.40;;;;;;;24.19;45.55;97428.97;4999118;28;20865;-63
2023/07/07 09:32:22;;;;;;;3.97;3.67;;;;;;;24.33;44.92;97429.25;5000975;28;20354;-64
2023/07/07 09:34:51;;;;;;;3.73;3.43;;;;;;;24.24;44.69;97430.84;4999400;28;20272;-65
2023/07/07 09:37:28;;;;;;;3.77;3.47;;;;;;;24.18;43.93;97432.75;4994504;28;20299;-61
2023/07/07 09:40:09;;;;;;;4.27;3.93;;;;;;;24.30;44.03;97432.50;4993734;28;20300;-64
2023/07/07 09:42:45;;;;;;;5.37;3.60;;;;;;;24.33;45.50;97425.72;4992417;28;20311;-64
2023/07/07 09:45:19;;;;;;;4.03;3.67;;;;;;;24.53;42.57;97436.59;4996070;28;20670;-64
2023/07/07 09:47:54;;;;;;;3.97;3.60;;;;;;;24.30;42.08;97437.94;4997022;28;20296;-64
2023/07/07 09:50:28;;;;;;;4.30;3.30;;;;;;;23.99;41.45;97416.16;4999056;28;20485;-65
2023/07/07 09:52:59;;;;;;;3.90;3.60;;;;;;;23.86;41.48;97428.28;4996125;28;20229;-64
2023/07/07 09:55:40;;;;;;;3.80;3.50;;;;;;;24.04;43.34;97427.00;4990375;28;21646;-63
2023/07/07 09:58:14;;;;;;;4.27;3.63;;;;;;;24.15;41.64;97422.44;4994509;28;20300;-65
2023/07/07 10:00:43;;;;;;;3.40;3.20;;;;;;;23.82;42.00;97419.06;4999465;28;20201;-64
2023/07/07 10:03:19;;;;;;;4.43;3.67;;;;;;;24.16;44.23;97413.25;5000513;28;20220;-63
2023/07/07 10:05:49;;;;;;;3.70;3.40;;;;;;;24.35;41.40;97427.09;4994078;28;20255;-64
2023/07/07 10:08:16;;;;;;;4.00;3.63;;;;;;;24.45;41.30;97425.47;4994223;28;20304;-65
2023/07/07 10:10:44;;;;;;;3.83;2.90;;;;;;;24.50;41.59;97420.91;4995098;28;20241;-64
2023/07/07 10:13:14;;;;;;;4.00;3.70;;;;;;;24.55;39.05;97423.59;4996042;28;20300;-64
2023/07/07 10:15:50;;;;;;;3.97;3.67;;;;;;;24.53;39.97;97425.78;5002412;28;20260;-64
2023/07/07 10:18:22;;;;;;;4.13;3.73;;;;;;;24.04;40.67;97424.31;4997511;28;20592;-64
2023/07/07 10:20:51;;;;;;;5.23;3.30;;;;;;;23.98;41.35;97422.63;4997126;28;20687;-64
2023/07/07 10:23:18;;;;;;;4.90;3.20;;;;;;;24.31;40.92;97422.47;4993836;28;20352;-64
2023/07/07 10:25:47;;;;;;;3.40;3.20;;;;;;;24.51;40.52;97424.41;4994796;28;20700;-64
2023/07/07 10:28:16;;;;;;;4.07;3.20;;;;;;;24.69;43.83;97409.53;4998449;28;20205;-64
2023/07/07 10:30:45;;;;;;;3.90;3.60;;;;;;;24.80;39.79;97413.09;4999844;28;20239;-64
2023/07/07 10:33:15;;;;;;;4.33;2.90;;;;;;;25.07;44.12;97415.50;5001000;28;20217;-63
2023/07/07 10:35:43;;;;;;;3.90;3.30;;;;;;;25.34;43.48;97406.25;4990800;28;21023;-64
2023/07/07 10:38:12;;;;;;;4.03;3.30;;;;;;;25.37;41.95;97407.56;4995659;28;20245;-64
2023/07/07 10:40:42;;;;;;;3.50;3.20;;;;;;;25.65;40.46;97411.63;4994768;28;20216;-64
2023/07/07 10:43:12;;;;;;;3.50;3.20;;;;;;;25.53;39.11;97408.38;4992922;28;20216;-64
2023/07/07 10:45:44;;;;;;;3.80;3.50;;;;;;;25.48;40.21;97405.69;4995929;28;20236;-64
2023/07/07 10:48:13;;;;;;;3.47;3.27;;;;;;;25.61;38.91;97407.84;4993717;28;20201;-64
2023/07/07 10:50:52;;;;;;;3.10;2.90;;;;;;;25.58;39.39;97389.41;4994972;28;20213;-63
2023/07/07 10:53:35;;;;;;;3.50;3.20;;;;;;;25.41;39.01;97408.69;5000477;28;20333;-64
2023/07/07 10:56:10;;;;;;;3.03;2.83;;;;;;;25.50;40.19;97401.63;4994098;28;20237;-64
2023/07/07 10:58:51;;;;;;;4.13;3.60;;;;;;;25.53;40.72;97397.53;4989138;28;20733;-64
2023/07/07 11:01:28;;;;;;;3.93;3.63;;;;;;;25.78;39.40;97390.41;4998504;28;20909;-64
2023/07/07 11:04:31;;;;;;;3.00;2.83;;;;;;;25.85;39.56;97396.31;4998564;28;20232;-64
2023/07/07 11:07:06;;;;;;;3.47;3.23;;;;;;;25.69;36.79;97396.41;4963420;28;20223;-63
2023/07/07 11:09:47;;;;;;;3.27;3.07;;;;;;;25.83;39.64;97401.22;4999113;28;20209;-64
2023/07/07 11:12:22;;;;;;;3.53;3.23;;;;;;;25.92;37.51;97404.97;4994511;28;20255;-63
2023/07/07 11:15:00;;;;;;;4.00;3.60;;;;;;;25.85;37.74;97394.44;4996070;28;20696;-64
2023/07/07 11:17:41;;;;;;;3.40;3.10;;;;;;;25.92;37.94;97388.69;4995663;28;20397;-64
2023/07/07 11:20:23;;;;;;;3.43;3.23;;;;;;;25.95;36.62;97390.88;4996678;28;20201;-64
2023/07/07 11:23:03;;;;;;;3.90;3.10;;;;;;;26.11;37.07;97385.34;4999737;28;20294;-63
2023/07/07 11:25:38;;;;;;;3.40;3.10;;;;;;;26.30;38.39;97380.88;4988684;28;20294;-64
2023/07/07 11:28:12;;;;;;;3.70;3.40;;;;;;;26.35;37.26;97379.25;4990378;28;21180;-64
2023/07/07 11:30:47;;;;;;;3.33;3.13;;;;;;;26.42;36.00;97379.75;4996095;28;20200;-64
2023/07/07 11:33:25;;;;;;;3.30;3.10;;;;;;;26.67;36.87;97381.44;4999558;28;20320;-64
2023/07/07 11:35:58;;;;;;;3.97;3.70;;;;;;;26.69;37.13;97381.16;4990796;28;20205;-65
2023/07/07 11:38:54;;;;;;;3.90;3.50;;;;;;;26.48;34.48;97378.63;4994009;28;20300;-63
2023/07/07 11:41:30;;;;;;;3.80;3.50;;;;;;;26.49;35.18;97369.38;4993948;28;20717;-64
2023/07/07 11:44:12;;;;;;;3.70;3.27;;;;;;;26.53;36.30;97375.84;4989455;28;20759;-64